N894A SADF-SAAR
Flight info
| Callsign | N894A |
|---|---|
| Flight time | 0h 51m |
| Altitude | 10000 |
| Route | DCT ATOVO W5 PEDRO W5 ESKON DCT |
| Aircraft | TBM8/L-SG/C |
Departure
| Time | 2026-04-27 02:28 |
|---|---|
| Airport | San Fernando Airport (SADF) |
Arrival
| Time | 2026-04-27 03:20 |
|---|---|
| Airport | Rosario Islas Malvinas International Airport (SAAR) |
| Time | Latitude | Longitude | Altitude | Speed | Heading |
|---|---|---|---|---|---|
| 2026-04-27 01:49 | -34.45545 | -58.58360 | 22 ft | 0 kts | 201° |
| 2026-04-27 02:02 | -34.45551 | -58.58376 | 22 ft | 0 kts | 201° |
| 2026-04-27 02:22 | -34.45554 | -58.58381 | 22 ft | 6 kts | 255° |
| 2026-04-27 02:22 | -34.45513 | -58.58390 | 22 ft | 7 kts | 34° |
| 2026-04-27 02:23 | -34.45471 | -58.58304 | 22 ft | 17 kts | 63° |
| 2026-04-27 02:23 | -34.45413 | -58.58168 | 23 ft | 17 kts | 63° |
| 2026-04-27 02:23 | -34.45364 | -58.58054 | 22 ft | 13 kts | 62° |
| 2026-04-27 02:23 | -34.45295 | -58.57994 | 22 ft | 17 kts | 318° |
| 2026-04-27 02:24 | -34.45202 | -58.58062 | 22 ft | 9 kts | 336° |
| 2026-04-27 02:24 | -34.45157 | -58.58094 | 22 ft | 11 kts | 331° |
| 2026-04-27 02:24 | -34.45092 | -58.58141 | 24 ft | 10 kts | 329° |
| 2026-04-27 02:24 | -34.45027 | -58.58190 | 22 ft | 14 kts | 329° |
| 2026-04-27 02:25 | -34.44928 | -58.58258 | 22 ft | 15 kts | 330° |
| 2026-04-27 02:25 | -34.44898 | -58.58282 | 22 ft | 0 kts | 322° |
| 2026-04-27 02:27 | -34.44863 | -58.58320 | 22 ft | 15 kts | 314° |
| 2026-04-27 02:27 | -34.44846 | -58.58368 | 23 ft | 9 kts | 232° |
| 2026-04-27 02:27 | -34.45030 | -58.58589 | 24 ft | 66 kts | 223° |
| 2026-04-27 02:28 | -34.45478 | -58.59100 | 86 ft | 103 kts | 231° |
| 2026-04-27 02:28 | -34.46018 | -58.59756 | 367 ft | 121 kts | 230° |
| 2026-04-27 02:28 | -34.46666 | -58.60570 | 550 ft | 144 kts | 231° |
| 2026-04-27 02:28 | -34.47359 | -58.61511 | 857 ft | 152 kts | 231° |
| 2026-04-27 02:29 | -34.48044 | -58.62460 | 1249 ft | 149 kts | 230° |
| 2026-04-27 02:29 | -34.48707 | -58.63398 | 1645 ft | 145 kts | 232° |
| 2026-04-27 02:29 | -34.49013 | -58.64122 | 1945 ft | 141 kts | 248° |
| 2026-04-27 02:29 | -34.48906 | -58.65696 | 2614 ft | 151 kts | 278° |
| 2026-04-27 02:30 | -34.48188 | -58.66738 | 3119 ft | 168 kts | 300° |
| 2026-04-27 02:30 | -34.47614 | -58.67379 | 3419 ft | 170 kts | 300° |
| 2026-04-27 02:30 | -34.46456 | -58.68713 | 3965 ft | 174 kts | 301° |
| 2026-04-27 02:30 | -34.45569 | -58.69734 | 4378 ft | 178 kts | 302° |
| 2026-04-27 02:31 | -34.44665 | -58.70776 | 4796 ft | 181 kts | 302° |
| 2026-04-27 02:31 | -34.44058 | -58.71475 | 5063 ft | 182 kts | 303° |
| 2026-04-27 02:31 | -34.43140 | -58.72536 | 5475 ft | 183 kts | 303° |
| 2026-04-27 02:31 | -34.42213 | -58.73608 | 5895 ft | 185 kts | 304° |
| 2026-04-27 02:32 | -34.40978 | -58.75031 | 6448 ft | 185 kts | 305° |
| 2026-04-27 02:32 | -34.40048 | -58.76106 | 6837 ft | 185 kts | 305° |
| 2026-04-27 02:32 | -34.39113 | -58.77187 | 7231 ft | 185 kts | 305° |
| 2026-04-27 02:32 | -34.38486 | -58.77911 | 7504 ft | 185 kts | 305° |
| 2026-04-27 02:33 | -34.37550 | -58.78990 | 7913 ft | 185 kts | 305° |
| 2026-04-27 02:33 | -34.36617 | -58.80068 | 8313 ft | 186 kts | 305° |
| 2026-04-27 02:33 | -34.35680 | -58.81148 | 8726 ft | 186 kts | 305° |
| 2026-04-27 02:33 | -34.34760 | -58.82209 | 9134 ft | 186 kts | 305° |
| 2026-04-27 02:34 | -34.33824 | -58.83288 | 9561 ft | 185 kts | 304° |
| 2026-04-27 02:34 | -34.32892 | -58.84363 | 9979 ft | 186 kts | 304° |
| 2026-04-27 02:34 | -34.31914 | -58.85502 | 10029 ft | 205 kts | 306° |
| 2026-04-27 02:34 | -34.30849 | -58.86715 | 10041 ft | 215 kts | 307° |
| 2026-04-27 02:35 | -34.29747 | -58.87970 | 10042 ft | 221 kts | 307° |
| 2026-04-27 02:35 | -34.28626 | -58.89264 | 10049 ft | 224 kts | 307° |
| 2026-04-27 02:35 | -34.27489 | -58.90574 | 10048 ft | 227 kts | 307° |
| 2026-04-27 02:35 | -34.26337 | -58.91898 | 10050 ft | 229 kts | 307° |
| 2026-04-27 02:36 | -34.25180 | -58.93227 | 10046 ft | 230 kts | 307° |
| 2026-04-27 02:36 | -34.24017 | -58.94561 | 10054 ft | 231 kts | 307° |
| 2026-04-27 02:36 | -34.22872 | -58.95877 | 10049 ft | 231 kts | 307° |
| 2026-04-27 02:36 | -34.21703 | -58.97219 | 10053 ft | 231 kts | 307° |
| 2026-04-27 02:37 | -34.20535 | -58.98561 | 10051 ft | 232 kts | 308° |
| 2026-04-27 02:37 | -34.19366 | -58.99901 | 10049 ft | 232 kts | 307° |
| 2026-04-27 02:37 | -34.18194 | -59.01244 | 10050 ft | 232 kts | 307° |
| 2026-04-27 02:37 | -34.17027 | -59.02581 | 10053 ft | 232 kts | 307° |
| 2026-04-27 02:38 | -34.15852 | -59.03928 | 10051 ft | 232 kts | 307° |
| 2026-04-27 02:38 | -34.14684 | -59.05266 | 10047 ft | 232 kts | 307° |
| 2026-04-27 02:38 | -34.13507 | -59.06611 | 10056 ft | 232 kts | 307° |
| 2026-04-27 02:38 | -34.12351 | -59.07933 | 10053 ft | 232 kts | 307° |
| 2026-04-27 02:39 | -34.11181 | -59.09272 | 10050 ft | 231 kts | 307° |
| 2026-04-27 02:39 | -34.10013 | -59.10609 | 10051 ft | 231 kts | 307° |
| 2026-04-27 02:39 | -34.08846 | -59.11941 | 10050 ft | 231 kts | 307° |
| 2026-04-27 02:39 | -34.07681 | -59.13272 | 10050 ft | 231 kts | 307° |
| 2026-04-27 02:40 | -34.06516 | -59.14602 | 10048 ft | 230 kts | 307° |
| 2026-04-27 02:40 | -34.05441 | -59.16002 | 10047 ft | 225 kts | 300° |
| 2026-04-27 02:40 | -34.04451 | -59.17472 | 10050 ft | 225 kts | 300° |
| 2026-04-27 02:40 | -34.03446 | -59.18924 | 10054 ft | 226 kts | 301° |
| 2026-04-27 02:41 | -34.02436 | -59.20373 | 10054 ft | 226 kts | 301° |
| 2026-04-27 02:41 | -34.01442 | -59.21805 | 10054 ft | 226 kts | 301° |
| 2026-04-27 02:41 | -34.00438 | -59.23251 | 10052 ft | 225 kts | 301° |
| 2026-04-27 02:41 | -33.99435 | -59.24698 | 10056 ft | 225 kts | 301° |
| 2026-04-27 02:42 | -33.98433 | -59.26142 | 10057 ft | 225 kts | 301° |
| 2026-04-27 02:42 | -33.97428 | -59.27590 | 10062 ft | 225 kts | 301° |
| 2026-04-27 02:42 | -33.96424 | -59.29034 | 10063 ft | 225 kts | 301° |
| 2026-04-27 02:42 | -33.95420 | -59.30478 | 10060 ft | 225 kts | 301° |
| 2026-04-27 02:43 | -33.94416 | -59.31923 | 10065 ft | 224 kts | 301° |
| 2026-04-27 02:43 | -33.93414 | -59.33363 | 10064 ft | 224 kts | 301° |
| 2026-04-27 02:43 | -33.92412 | -59.34802 | 10065 ft | 224 kts | 301° |
| 2026-04-27 02:43 | -33.91425 | -59.36220 | 10065 ft | 224 kts | 301° |
| 2026-04-27 02:44 | -33.90426 | -59.37657 | 10064 ft | 224 kts | 301° |
| 2026-04-27 02:44 | -33.89423 | -59.39095 | 10064 ft | 224 kts | 301° |
| 2026-04-27 02:44 | -33.88421 | -59.40531 | 10067 ft | 224 kts | 301° |
| 2026-04-27 02:44 | -33.87420 | -59.41968 | 10070 ft | 224 kts | 301° |
| 2026-04-27 02:45 | -33.86422 | -59.43398 | 10072 ft | 223 kts | 301° |
| 2026-04-27 02:45 | -33.85424 | -59.44829 | 10071 ft | 223 kts | 301° |
| 2026-04-27 02:45 | -33.84435 | -59.46245 | 10072 ft | 224 kts | 301° |
| 2026-04-27 02:45 | -33.83436 | -59.47677 | 10075 ft | 223 kts | 301° |
| 2026-04-27 02:46 | -33.82438 | -59.49106 | 10074 ft | 223 kts | 301° |
| 2026-04-27 02:46 | -33.81440 | -59.50533 | 10075 ft | 223 kts | 301° |
| 2026-04-27 02:46 | -33.80442 | -59.51960 | 10078 ft | 223 kts | 301° |
| 2026-04-27 02:46 | -33.79443 | -59.53388 | 10073 ft | 223 kts | 301° |
| 2026-04-27 02:47 | -33.78442 | -59.54820 | 10078 ft | 224 kts | 301° |
| 2026-04-27 02:47 | -33.77440 | -59.56252 | 10082 ft | 224 kts | 301° |
| 2026-04-27 02:47 | -33.76438 | -59.57680 | 10079 ft | 224 kts | 301° |
| 2026-04-27 02:47 | -33.75438 | -59.59108 | 10083 ft | 223 kts | 301° |
| 2026-04-27 02:48 | -33.74439 | -59.60534 | 10081 ft | 223 kts | 301° |
| 2026-04-27 02:48 | -33.73452 | -59.61942 | 10083 ft | 223 kts | 301° |
| 2026-04-27 02:48 | -33.72451 | -59.63369 | 10082 ft | 223 kts | 301° |
| 2026-04-27 02:48 | -33.71450 | -59.64795 | 10086 ft | 223 kts | 301° |
| 2026-04-27 02:49 | -33.70452 | -59.66218 | 10085 ft | 223 kts | 301° |
| 2026-04-27 02:49 | -33.69454 | -59.67640 | 10086 ft | 223 kts | 301° |
| 2026-04-27 02:49 | -33.68453 | -59.69060 | 10087 ft | 223 kts | 301° |
| 2026-04-27 02:49 | -33.67451 | -59.70483 | 10089 ft | 223 kts | 301° |
| 2026-04-27 02:50 | -33.66448 | -59.71907 | 10089 ft | 223 kts | 301° |
| 2026-04-27 02:50 | -33.65447 | -59.73329 | 10091 ft | 223 kts | 301° |
| 2026-04-27 02:50 | -33.64444 | -59.74752 | 10093 ft | 223 kts | 301° |
| 2026-04-27 02:50 | -33.63441 | -59.76174 | 10092 ft | 223 kts | 301° |
| 2026-04-27 02:51 | -33.62452 | -59.77575 | 10088 ft | 223 kts | 301° |
| 2026-04-27 02:51 | -33.61435 | -59.79017 | 10098 ft | 223 kts | 301° |
| 2026-04-27 02:51 | -33.60447 | -59.80415 | 10095 ft | 223 kts | 301° |
| 2026-04-27 02:51 | -33.59447 | -59.81829 | 10097 ft | 223 kts | 301° |
| 2026-04-27 02:52 | -33.58445 | -59.83246 | 10096 ft | 222 kts | 301° |
| 2026-04-27 02:52 | -33.57447 | -59.84660 | 10103 ft | 222 kts | 301° |
| 2026-04-27 02:52 | -33.56449 | -59.86071 | 10102 ft | 222 kts | 301° |
| 2026-04-27 02:52 | -33.55445 | -59.87493 | 10101 ft | 223 kts | 301° |
| 2026-04-27 02:53 | -33.54442 | -59.88910 | 10103 ft | 223 kts | 301° |
| 2026-04-27 02:53 | -33.53451 | -59.90309 | 10099 ft | 223 kts | 301° |
| 2026-04-27 02:53 | -33.52433 | -59.91743 | 10104 ft | 223 kts | 301° |
| 2026-04-27 02:53 | -33.51447 | -59.93137 | 10104 ft | 222 kts | 301° |
| 2026-04-27 02:54 | -33.50446 | -59.94550 | 10110 ft | 223 kts | 301° |
| 2026-04-27 02:54 | -33.49442 | -59.95966 | 10107 ft | 223 kts | 301° |
| 2026-04-27 02:54 | -33.48439 | -59.97378 | 10108 ft | 223 kts | 301° |
| 2026-04-27 02:54 | -33.47437 | -59.98790 | 10108 ft | 222 kts | 301° |
| 2026-04-27 02:55 | -33.46434 | -60.00203 | 10110 ft | 222 kts | 301° |
| 2026-04-27 02:55 | -33.45435 | -60.01608 | 10107 ft | 222 kts | 301° |
| 2026-04-27 02:55 | -33.44446 | -60.03000 | 10111 ft | 222 kts | 301° |
| 2026-04-27 02:55 | -33.43447 | -60.04408 | 10110 ft | 222 kts | 300° |
| 2026-04-27 02:56 | -33.42447 | -60.05815 | 10115 ft | 222 kts | 300° |
| 2026-04-27 02:56 | -33.41444 | -60.07224 | 10111 ft | 222 kts | 300° |
| 2026-04-27 02:56 | -33.40444 | -60.08628 | 10109 ft | 222 kts | 300° |
| 2026-04-27 02:56 | -33.39444 | -60.10033 | 10116 ft | 221 kts | 300° |
| 2026-04-27 02:57 | -33.38446 | -60.11435 | 10115 ft | 221 kts | 300° |
| 2026-04-27 02:57 | -33.37447 | -60.12836 | 10116 ft | 221 kts | 300° |
| 2026-04-27 02:57 | -33.36449 | -60.14237 | 10123 ft | 221 kts | 300° |
| 2026-04-27 02:57 | -33.35453 | -60.15635 | 10118 ft | 221 kts | 300° |
| 2026-04-27 02:58 | -33.34455 | -60.17034 | 10122 ft | 221 kts | 300° |
| 2026-04-27 02:58 | -33.33459 | -60.18430 | 10125 ft | 221 kts | 300° |
| 2026-04-27 02:58 | -33.32462 | -60.19826 | 10126 ft | 221 kts | 300° |
| 2026-04-27 02:58 | -33.31467 | -60.21220 | 10124 ft | 220 kts | 300° |
| 2026-04-27 02:59 | -33.30469 | -60.22616 | 10126 ft | 220 kts | 300° |
| 2026-04-27 02:59 | -33.29487 | -60.23989 | 10123 ft | 220 kts | 300° |
| 2026-04-27 02:59 | -33.28496 | -60.25376 | 10124 ft | 220 kts | 300° |
| 2026-04-27 02:59 | -33.27500 | -60.26769 | 10122 ft | 220 kts | 300° |
| 2026-04-27 03:00 | -33.26508 | -60.28156 | 10127 ft | 219 kts | 300° |
| 2026-04-27 03:00 | -33.25516 | -60.29541 | 10130 ft | 219 kts | 299° |
| 2026-04-27 03:00 | -33.24523 | -60.30927 | 10126 ft | 219 kts | 299° |
| 2026-04-27 03:00 | -33.23533 | -60.32308 | 10131 ft | 219 kts | 299° |
| 2026-04-27 03:01 | -33.22546 | -60.33687 | 10127 ft | 218 kts | 299° |
| 2026-04-27 03:01 | -33.21562 | -60.35065 | 10131 ft | 218 kts | 298° |
| 2026-04-27 03:01 | -33.20580 | -60.36441 | 10133 ft | 218 kts | 298° |
| 2026-04-27 03:01 | -33.19597 | -60.37816 | 10133 ft | 218 kts | 298° |
| 2026-04-27 03:02 | -33.18623 | -60.39178 | 10097 ft | 220 kts | 298° |
| 2026-04-27 03:02 | -33.17617 | -60.40585 | 9858 ft | 224 kts | 299° |
| 2026-04-27 03:02 | -33.16599 | -60.41984 | 9588 ft | 222 kts | 299° |
| 2026-04-27 03:02 | -33.15602 | -60.43377 | 9319 ft | 220 kts | 299° |
| 2026-04-27 03:03 | -33.14508 | -60.44681 | 9049 ft | 231 kts | 315° |
| 2026-04-27 03:03 | -33.11438 | -60.46197 | 8525 ft | 240 kts | 330° |
| 2026-04-27 03:03 | -33.09909 | -60.46921 | 8269 ft | 234 kts | 327° |
| 2026-04-27 03:04 | -33.08399 | -60.47699 | 7789 ft | 240 kts | 328° |
| 2026-04-27 03:04 | -33.06891 | -60.48438 | 7293 ft | 229 kts | 330° |
| 2026-04-27 03:04 | -33.05460 | -60.49131 | 6802 ft | 220 kts | 330° |
| 2026-04-27 03:04 | -33.04064 | -60.49839 | 6296 ft | 216 kts | 330° |
| 2026-04-27 03:05 | -33.02684 | -60.50531 | 5772 ft | 215 kts | 331° |
| 2026-04-27 03:05 | -33.01309 | -60.51211 | 5263 ft | 214 kts | 331° |
| 2026-04-27 03:05 | -32.99938 | -60.51889 | 4748 ft | 213 kts | 332° |
| 2026-04-27 03:05 | -32.98569 | -60.52564 | 4227 ft | 213 kts | 331° |
| 2026-04-27 03:06 | -32.97205 | -60.53239 | 3712 ft | 212 kts | 331° |
| 2026-04-27 03:06 | -32.95859 | -60.53904 | 3379 ft | 206 kts | 330° |
| 2026-04-27 03:06 | -32.94548 | -60.54555 | 3042 ft | 204 kts | 329° |
| 2026-04-27 03:06 | -32.93299 | -60.55170 | 3002 ft | 189 kts | 328° |
| 2026-04-27 03:07 | -32.92105 | -60.55773 | 2998 ft | 188 kts | 327° |
| 2026-04-27 03:07 | -32.90859 | -60.56415 | 3003 ft | 202 kts | 328° |
| 2026-04-27 03:07 | -32.89523 | -60.57063 | 3010 ft | 211 kts | 330° |
| 2026-04-27 03:07 | -32.88146 | -60.57726 | 3017 ft | 216 kts | 330° |
| 2026-04-27 03:08 | -32.86750 | -60.58412 | 3016 ft | 218 kts | 330° |
| 2026-04-27 03:08 | -32.85347 | -60.59105 | 3018 ft | 219 kts | 330° |
| 2026-04-27 03:08 | -32.83937 | -60.59801 | 3020 ft | 220 kts | 330° |
| 2026-04-27 03:08 | -32.82525 | -60.60496 | 3018 ft | 220 kts | 330° |
| 2026-04-27 03:09 | -32.81113 | -60.61191 | 3021 ft | 219 kts | 330° |
| 2026-04-27 03:09 | -32.79703 | -60.61887 | 3018 ft | 219 kts | 330° |
| 2026-04-27 03:09 | -32.78300 | -60.62577 | 3017 ft | 219 kts | 330° |
| 2026-04-27 03:09 | -32.76892 | -60.63270 | 3013 ft | 216 kts | 330° |
| 2026-04-27 03:10 | -32.75529 | -60.63928 | 2995 ft | 208 kts | 330° |
| 2026-04-27 03:10 | -32.74301 | -60.64679 | 2987 ft | 194 kts | 312° |
| 2026-04-27 03:10 | -32.73432 | -60.65802 | 2981 ft | 176 kts | 291° |
| 2026-04-27 03:10 | -32.72863 | -60.67008 | 2985 ft | 163 kts | 284° |
| 2026-04-27 03:11 | -32.72369 | -60.68190 | 2980 ft | 157 kts | 280° |
| 2026-04-27 03:11 | -32.71949 | -60.69360 | 2984 ft | 152 kts | 277° |
| 2026-04-27 03:11 | -32.71590 | -60.70528 | 2986 ft | 149 kts | 274° |
| 2026-04-27 03:11 | -32.71289 | -60.71693 | 2983 ft | 147 kts | 271° |
| 2026-04-27 03:12 | -32.71040 | -60.72856 | 2985 ft | 144 kts | 268° |
| 2026-04-27 03:12 | -32.70857 | -60.74014 | 2985 ft | 138 kts | 260° |
| 2026-04-27 03:12 | -32.71047 | -60.75043 | 2991 ft | 123 kts | 232° |
| 2026-04-27 03:12 | -32.71560 | -60.75804 | 2997 ft | 115 kts | 212° |
| 2026-04-27 03:13 | -32.72251 | -60.76249 | 2998 ft | 112 kts | 199° |
| 2026-04-27 03:13 | -32.73008 | -60.76364 | 2998 ft | 109 kts | 179° |
| 2026-04-27 03:13 | -32.73801 | -60.76238 | 2676 ft | 119 kts | 178° |
| 2026-04-27 03:13 | -32.74632 | -60.76105 | 2361 ft | 121 kts | 178° |
| 2026-04-27 03:14 | -32.75452 | -60.75933 | 2051 ft | 124 kts | 170° |
| 2026-04-27 03:14 | -32.76197 | -60.75488 | 1993 ft | 111 kts | 168° |
| 2026-04-27 03:14 | -32.76885 | -60.75510 | 1988 ft | 93 kts | 194° |
| 2026-04-27 03:14 | -32.77488 | -60.75606 | 1987 ft | 83 kts | 187° |
| 2026-04-27 03:15 | -32.78076 | -60.75609 | 1970 ft | 88 kts | 192° |
| 2026-04-27 03:15 | -32.78713 | -60.75729 | 1996 ft | 96 kts | 193° |
| 2026-04-27 03:15 | -32.79395 | -60.75865 | 1991 ft | 101 kts | 193° |
| 2026-04-27 03:15 | -32.80069 | -60.76031 | 1932 ft | 97 kts | 195° |
| 2026-04-27 03:16 | -32.80715 | -60.76236 | 1816 ft | 96 kts | 197° |
| 2026-04-27 03:16 | -32.81372 | -60.76404 | 1692 ft | 97 kts | 195° |
| 2026-04-27 03:16 | -32.82039 | -60.76544 | 1559 ft | 98 kts | 194° |
| 2026-04-27 03:16 | -32.82710 | -60.76693 | 1424 ft | 99 kts | 194° |
| 2026-04-27 03:17 | -32.83378 | -60.76854 | 1270 ft | 100 kts | 196° |
| 2026-04-27 03:17 | -32.84055 | -60.77006 | 1137 ft | 101 kts | 194° |
| 2026-04-27 03:17 | -32.84758 | -60.77174 | 974 ft | 105 kts | 195° |
| 2026-04-27 03:17 | -32.85490 | -60.77350 | 836 ft | 110 kts | 194° |
| 2026-04-27 03:18 | -32.86253 | -60.77510 | 700 ft | 112 kts | 194° |
| 2026-04-27 03:18 | -32.86957 | -60.77687 | 613 ft | 93 kts | 194° |
| 2026-04-27 03:18 | -32.87568 | -60.77821 | 493 ft | 86 kts | 195° |
| 2026-04-27 03:18 | -32.88158 | -60.77954 | 381 ft | 86 kts | 192° |
| 2026-04-27 03:19 | -32.88744 | -60.78089 | 270 ft | 86 kts | 197° |
| 2026-04-27 03:19 | -32.89343 | -60.78231 | 126 ft | 87 kts | 193° |
| 2026-04-27 03:19 | -32.89912 | -60.78367 | 92 ft | 75 kts | 193° |
| 2026-04-27 03:19 | -32.90335 | -60.78464 | 88 ft | 52 kts | 189° |
| 2026-04-27 03:20 | -32.90645 | -60.78534 | 92 ft | 40 kts | 191° |
| 2026-04-27 03:20 | -32.90859 | -60.78571 | 94 ft | 19 kts | 172° |
| 2026-04-27 03:20 | -32.90974 | -60.78533 | 93 ft | 13 kts | 158° |
| 2026-04-27 03:20 | -32.91024 | -60.78511 | 92 ft | 3 kts | 161° |
| 2026-04-27 03:21 | -32.91027 | -60.78510 | 92 ft | 0 kts | 160° |
| 2026-04-27 03:21 | -32.91051 | -60.78498 | 91 ft | 4 kts | 156° |
| 2026-04-27 03:21 | -32.91056 | -60.78495 | 94 ft | 0 kts | 152° |
| 2026-04-27 03:22 | -32.91092 | -60.78468 | 91 ft | 11 kts | 145° |
| 2026-04-27 03:23 | -32.91174 | -60.78396 | 90 ft | 22 kts | 141° |
| 2026-04-27 03:23 | -32.91261 | -60.78311 | 90 ft | 12 kts | 141° |
| 2026-04-27 03:23 | -32.91325 | -60.78251 | 90 ft | 11 kts | 141° |
| 2026-04-27 03:23 | -32.91395 | -60.78182 | 90 ft | 10 kts | 141° |
| 2026-04-27 03:24 | -32.91463 | -60.78173 | 90 ft | 11 kts | 197° |
| 2026-04-27 03:24 | -32.91543 | -60.78208 | 91 ft | 12 kts | 201° |
| 2026-04-27 03:24 | -32.91629 | -60.78248 | 91 ft | 19 kts | 201° |
| 2026-04-27 03:24 | -32.91713 | -60.78285 | 90 ft | 11 kts | 197° |
| 2026-04-27 03:25 | -32.91761 | -60.78250 | 90 ft | 12 kts | 165° |
| 2026-04-27 03:25 | -32.91816 | -60.78259 | 91 ft | 6 kts | 192° |
| 2026-04-27 03:25 | -32.91840 | -60.78214 | 90 ft | 8 kts | 61° |
| 2026-04-27 03:25 | -32.91823 | -60.78202 | 91 ft | 0 kts | 19° |